首页
METAR-TAF:

METAR-TAF

机场 :

Baraboo Wisconsin Dells Airport

Baraboo / Wisconsin Dells, 威斯康辛州, 美国

纬度: 43-31-19N, 经度: 089-46-15W, 海拔: 298米

当前天气观测

该预报发布于26分钟前的19:55 UTC
风速5节,风向东北
温度 2°C
湿度 64%
气压 1013 hPa
能見度: 16.1公里
天空无云

METAR: KDLL 241955Z AUTO 05005KT 10SM CLR 02/M04 A2990 RMK AO2 T00231040

时间: 14:21 (20:21 UTC)


TAF: 丢失

超过4000个机场的气象观测和天气预报(METAR&TAF报告)。

可查询的气象台以黄色和红色小点在地图上表示。

将鼠标移到小点上方,可查看气象台名称。

然后点击查看天气观测和预报。

如需切换地图:点击带黑十字的绿色按钮放大地图;点击带横线的绿色按钮缩小地图;或者点击绿色箭头查看邻近地区的地图。


METAR-TAF: